sensor_id;sensor_type;location;lat;lon;timestamp;P1;durP1;ratioP1;P2;durP2;ratioP2
23288;SDS011;11813;50.834;4.280;2023-01-19T00:00:25;23.57;;;15.20;;
23288;SDS011;11813;50.834;4.280;2023-01-19T00:02:51;22.93;;;14.43;;
23288;SDS011;11813;50.834;4.280;2023-01-19T00:05:18;22.80;;;14.03;;
23288;SDS011;11813;50.834;4.280;2023-01-19T00:07:44;25.10;;;14.87;;
23288;SDS011;11813;50.834;4.280;2023-01-19T00:10:10;22.07;;;14.33;;
23288;SDS011;11813;50.834;4.280;2023-01-19T00:12:36;23.73;;;13.93;;
23288;SDS011;11813;50.834;4.280;2023-01-19T00:15:02;26.33;;;14.33;;
23288;SDS011;11813;50.834;4.280;2023-01-19T00:17:28;21.10;;;14.60;;
23288;SDS011;11813;50.834;4.280;2023-01-19T00:19:53;23.97;;;15.30;;
23288;SDS011;11813;50.834;4.280;2023-01-19T00:22:19;23.10;;;14.63;;
23288;SDS011;11813;50.834;4.280;2023-01-19T00:24:44;27.17;;;14.67;;
23288;SDS011;11813;50.834;4.280;2023-01-19T00:27:10;23.10;;;13.93;;
23288;SDS011;11813;50.834;4.280;2023-01-19T00:29:36;25.03;;;14.40;;
23288;SDS011;11813;50.834;4.280;2023-01-19T00:32:02;22.37;;;14.20;;
23288;SDS011;11813;50.834;4.280;2023-01-19T00:34:29;23.50;;;13.90;;
23288;SDS011;11813;50.834;4.280;2023-01-19T00:37:04;24.93;;;15.07;;
23288;SDS011;11813;50.834;4.280;2023-01-19T00:39:30;23.43;;;13.57;;
23288;SDS011;11813;50.834;4.280;2023-01-19T00:41:56;26.03;;;13.37;;
23288;SDS011;11813;50.834;4.280;2023-01-19T00:44:40;22.60;;;13.43;;
23288;SDS011;11813;50.834;4.280;2023-01-19T00:47:06;21.00;;;14.17;;
23288;SDS011;11813;50.834;4.280;2023-01-19T00:49:32;25.43;;;14.00;;
23288;SDS011;11813;50.834;4.280;2023-01-19T00:51:57;26.23;;;14.67;;
23288;SDS011;11813;50.834;4.280;2023-01-19T00:54:23;23.87;;;14.23;;
23288;SDS011;11813;50.834;4.280;2023-01-19T00:56:48;24.77;;;14.40;;
23288;SDS011;11813;50.834;4.280;2023-01-19T00:59:14;21.13;;;13.93;;
23288;SDS011;11813;50.834;4.280;2023-01-19T01:01:39;25.10;;;14.27;;
23288;SDS011;11813;50.834;4.280;2023-01-19T01:04:05;27.30;;;13.60;;
23288;SDS011;11813;50.834;4.280;2023-01-19T01:06:31;20.47;;;13.57;;
23288;SDS011;11813;50.834;4.280;2023-01-19T01:08:56;21.80;;;14.50;;
23288;SDS011;11813;50.834;4.280;2023-01-19T01:11:22;26.13;;;14.00;;
23288;SDS011;11813;50.834;4.280;2023-01-19T01:13:47;26.87;;;14.37;;
23288;SDS011;11813;50.834;4.280;2023-01-19T01:16:14;22.50;;;13.53;;
23288;SDS011;11813;50.834;4.280;2023-01-19T01:18:40;24.03;;;13.70;;
23288;SDS011;11813;50.834;4.280;2023-01-19T01:21:06;24.13;;;13.70;;
23288;SDS011;11813;50.834;4.280;2023-01-19T01:23:33;22.00;;;13.43;;
23288;SDS011;11813;50.834;4.280;2023-01-19T01:25:58;24.80;;;15.00;;
23288;SDS011;11813;50.834;4.280;2023-01-19T01:28:24;25.07;;;13.23;;
23288;SDS011;11813;50.834;4.280;2023-01-19T01:30:53;29.33;;;14.97;;
23288;SDS011;11813;50.834;4.280;2023-01-19T01:33:20;27.53;;;14.73;;
23288;SDS011;11813;50.834;4.280;2023-01-19T01:35:47;27.87;;;14.97;;
23288;SDS011;11813;50.834;4.280;2023-01-19T01:38:13;26.67;;;13.67;;
23288;SDS011;11813;50.834;4.280;2023-01-19T01:40:39;24.90;;;14.27;;
23288;SDS011;11813;50.834;4.280;2023-01-19T01:43:09;24.97;;;14.83;;
23288;SDS011;11813;50.834;4.280;2023-01-19T01:45:40;23.73;;;14.10;;
23288;SDS011;11813;50.834;4.280;2023-01-19T01:48:09;24.83;;;14.27;;
23288;SDS011;11813;50.834;4.280;2023-01-19T01:50:41;27.60;;;14.30;;
23288;SDS011;11813;50.834;4.280;2023-01-19T01:53:35;22.90;;;13.37;;
23288;SDS011;11813;50.834;4.280;2023-01-19T01:56:02;24.37;;;13.83;;
23288;SDS011;11813;50.834;4.280;2023-01-19T01:58:32;23.10;;;14.40;;
23288;SDS011;11813;50.834;4.280;2023-01-19T02:00:59;24.30;;;14.60;;
23288;SDS011;11813;50.834;4.280;2023-01-19T02:03:43;24.63;;;14.40;;
23288;SDS011;11813;50.834;4.280;2023-01-19T02:06:09;23.77;;;14.00;;
23288;SDS011;11813;50.834;4.280;2023-01-19T02:08:37;28.43;;;14.83;;
23288;SDS011;11813;50.834;4.280;2023-01-19T02:11:25;28.27;;;12.87;;
23288;SDS011;11813;50.834;4.280;2023-01-19T02:14:11;22.57;;;13.57;;
23288;SDS011;11813;50.834;4.280;2023-01-19T02:16:37;24.83;;;14.00;;
23288;SDS011;11813;50.834;4.280;2023-01-19T02:19:04;26.43;;;14.30;;
23288;SDS011;11813;50.834;4.280;2023-01-19T02:24:10;26.83;;;14.30;;
23288;SDS011;11813;50.834;4.280;2023-01-19T02:26:39;25.60;;;13.87;;
23288;SDS011;11813;50.834;4.280;2023-01-19T02:29:12;26.43;;;13.57;;
23288;SDS011;11813;50.834;4.280;2023-01-19T02:31:40;26.47;;;13.33;;
23288;SDS011;11813;50.834;4.280;2023-01-19T02:34:07;24.57;;;13.70;;
23288;SDS011;11813;50.834;4.280;2023-01-19T02:36:47;22.70;;;13.50;;
23288;SDS011;11813;50.834;4.280;2023-01-19T02:39:13;22.87;;;13.77;;
23288;SDS011;11813;50.834;4.280;2023-01-19T02:41:44;26.10;;;13.90;;
23288;SDS011;11813;50.834;4.280;2023-01-19T02:44:13;23.67;;;13.57;;
23288;SDS011;11813;50.834;4.280;2023-01-19T02:46:40;25.47;;;14.50;;
23288;SDS011;11813;50.834;4.280;2023-01-19T02:49:06;28.17;;;14.73;;
23288;SDS011;11813;50.834;4.280;2023-01-19T02:51:31;24.23;;;13.23;;
23288;SDS011;11813;50.834;4.280;2023-01-19T02:56:58;23.37;;;13.57;;
23288;SDS011;11813;50.834;4.280;2023-01-19T03:02:46;24.23;;;13.77;;
23288;SDS011;11813;50.834;4.280;2023-01-19T03:18:46;25.67;;;12.67;;
23288;SDS011;11813;50.834;4.280;2023-01-19T03:21:17;23.57;;;14.00;;
23288;SDS011;11813;50.834;4.280;2023-01-19T03:23:46;24.13;;;14.27;;
23288;SDS011;11813;50.834;4.280;2023-01-19T03:26:17;21.73;;;12.73;;
23288;SDS011;11813;50.834;4.280;2023-01-19T03:28:45;24.73;;;13.77;;
23288;SDS011;11813;50.834;4.280;2023-01-19T03:31:14;23.83;;;13.63;;
23288;SDS011;11813;50.834;4.280;2023-01-19T03:33:42;21.10;;;12.93;;
23288;SDS011;11813;50.834;4.280;2023-01-19T03:36:13;32.37;;;14.40;;
23288;SDS011;11813;50.834;4.280;2023-01-19T03:38:50;24.57;;;14.00;;
23288;SDS011;11813;50.834;4.280;2023-01-19T03:41:18;28.13;;;13.53;;
23288;SDS011;11813;50.834;4.280;2023-01-19T03:43:46;24.63;;;14.77;;
23288;SDS011;11813;50.834;4.280;2023-01-19T03:46:13;25.23;;;14.60;;
23288;SDS011;11813;50.834;4.280;2023-01-19T03:48:41;27.73;;;14.27;;
23288;SDS011;11813;50.834;4.280;2023-01-19T03:51:08;26.53;;;14.47;;
23288;SDS011;11813;50.834;4.280;2023-01-19T03:53:35;25.67;;;14.23;;
23288;SDS011;11813;50.834;4.280;2023-01-19T03:56:00;27.23;;;14.97;;
23288;SDS011;11813;50.834;4.280;2023-01-19T03:58:26;24.83;;;12.87;;
23288;SDS011;11813;50.834;4.280;2023-01-19T04:00:52;27.13;;;14.30;;
23288;SDS011;11813;50.834;4.280;2023-01-19T04:03:18;28.63;;;14.47;;
23288;SDS011;11813;50.834;4.280;2023-01-19T04:05:44;23.40;;;13.13;;
23288;SDS011;11813;50.834;4.280;2023-01-19T04:08:10;28.57;;;14.80;;
23288;SDS011;11813;50.834;4.280;2023-01-19T04:10:36;29.93;;;15.03;;
23288;SDS011;11813;50.834;4.280;2023-01-19T04:13:02;24.57;;;14.63;;
23288;SDS011;11813;50.834;4.280;2023-01-19T04:15:29;32.13;;;16.13;;
23288;SDS011;11813;50.834;4.280;2023-01-19T04:17:58;27.77;;;14.83;;
23288;SDS011;11813;50.834;4.280;2023-01-19T04:20:25;23.27;;;14.60;;
23288;SDS011;11813;50.834;4.280;2023-01-19T04:22:52;30.10;;;14.30;;
23288;SDS011;11813;50.834;4.280;2023-01-19T04:25:18;28.50;;;15.17;;
23288;SDS011;11813;50.834;4.280;2023-01-19T04:27:44;23.93;;;14.63;;
23288;SDS011;11813;50.834;4.280;2023-01-19T04:30:10;28.83;;;15.70;;
23288;SDS011;11813;50.834;4.280;2023-01-19T04:32:36;33.90;;;16.73;;
23288;SDS011;11813;50.834;4.280;2023-01-19T04:35:01;34.33;;;16.17;;
23288;SDS011;11813;50.834;4.280;2023-01-19T04:37:28;30.30;;;15.80;;
23288;SDS011;11813;50.834;4.280;2023-01-19T04:39:53;32.00;;;16.60;;
23288;SDS011;11813;50.834;4.280;2023-01-19T04:42:19;34.00;;;16.07;;
23288;SDS011;11813;50.834;4.280;2023-01-19T04:44:45;28.47;;;15.97;;
23288;SDS011;11813;50.834;4.280;2023-01-19T04:47:11;29.70;;;17.10;;
23288;SDS011;11813;50.834;4.280;2023-01-19T04:49:36;30.77;;;15.97;;
23288;SDS011;11813;50.834;4.280;2023-01-19T04:52:02;35.10;;;16.93;;
23288;SDS011;11813;50.834;4.280;2023-01-19T04:54:28;37.13;;;17.73;;
23288;SDS011;11813;50.834;4.280;2023-01-19T04:56:54;35.53;;;17.93;;
23288;SDS011;11813;50.834;4.280;2023-01-19T04:59:20;37.50;;;18.70;;
23288;SDS011;11813;50.834;4.280;2023-01-19T05:01:45;38.17;;;19.00;;
23288;SDS011;11813;50.834;4.280;2023-01-19T05:04:11;33.83;;;17.97;;
23288;SDS011;11813;50.834;4.280;2023-01-19T05:06:37;37.97;;;18.57;;
23288;SDS011;11813;50.834;4.280;2023-01-19T05:09:02;36.20;;;18.17;;
23288;SDS011;11813;50.834;4.280;2023-01-19T05:11:28;40.43;;;17.90;;
23288;SDS011;11813;50.834;4.280;2023-01-19T05:13:54;38.23;;;18.70;;
23288;SDS011;11813;50.834;4.280;2023-01-19T05:16:20;38.23;;;19.80;;
23288;SDS011;11813;50.834;4.280;2023-01-19T05:18:45;40.90;;;18.30;;
23288;SDS011;11813;50.834;4.280;2023-01-19T05:21:11;38.47;;;18.90;;
23288;SDS011;11813;50.834;4.280;2023-01-19T05:23:36;38.47;;;18.63;;
23288;SDS011;11813;50.834;4.280;2023-01-19T05:26:02;40.60;;;19.53;;
23288;SDS011;11813;50.834;4.280;2023-01-19T05:28:28;38.93;;;20.37;;
23288;SDS011;11813;50.834;4.280;2023-01-19T05:30:55;40.37;;;20.33;;
23288;SDS011;11813;50.834;4.280;2023-01-19T05:33:21;33.03;;;17.43;;
23288;SDS011;11813;50.834;4.280;2023-01-19T05:35:50;37.00;;;19.93;;
23288;SDS011;11813;50.834;4.280;2023-01-19T05:38:17;38.63;;;19.17;;
23288;SDS011;11813;50.834;4.280;2023-01-19T05:40:43;34.93;;;18.83;;
23288;SDS011;11813;50.834;4.280;2023-01-19T05:43:08;34.80;;;17.77;;
23288;SDS011;11813;50.834;4.280;2023-01-19T05:45:34;40.30;;;18.87;;
23288;SDS011;11813;50.834;4.280;2023-01-19T05:48:00;37.43;;;18.07;;
23288;SDS011;11813;50.834;4.280;2023-01-19T05:50:26;34.30;;;18.83;;
23288;SDS011;11813;50.834;4.280;2023-01-19T05:52:51;33.37;;;18.40;;
23288;SDS011;11813;50.834;4.280;2023-01-19T05:55:17;43.90;;;19.40;;
23288;SDS011;11813;50.834;4.280;2023-01-19T05:57:44;39.17;;;18.23;;
23288;SDS011;11813;50.834;4.280;2023-01-19T06:00:10;36.47;;;17.97;;
23288;SDS011;11813;50.834;4.280;2023-01-19T06:02:36;34.77;;;17.57;;
23288;SDS011;11813;50.834;4.280;2023-01-19T06:05:01;39.60;;;17.93;;
23288;SDS011;11813;50.834;4.280;2023-01-19T06:07:28;39.77;;;18.90;;
23288;SDS011;11813;50.834;4.280;2023-01-19T06:09:55;30.50;;;16.67;;
23288;SDS011;11813;50.834;4.280;2023-01-19T06:12:21;36.47;;;17.30;;
23288;SDS011;11813;50.834;4.280;2023-01-19T06:14:47;32.90;;;16.60;;
23288;SDS011;11813;50.834;4.280;2023-01-19T06:17:12;31.57;;;16.97;;
23288;SDS011;11813;50.834;4.280;2023-01-19T06:19:38;33.27;;;16.60;;
23288;SDS011;11813;50.834;4.280;2023-01-19T06:22:03;31.40;;;16.33;;
23288;SDS011;11813;50.834;4.280;2023-01-19T06:24:29;39.47;;;17.70;;
23288;SDS011;11813;50.834;4.280;2023-01-19T06:26:54;35.67;;;17.17;;
23288;SDS011;11813;50.834;4.280;2023-01-19T06:29:20;27.20;;;14.60;;
23288;SDS011;11813;50.834;4.280;2023-01-19T06:31:46;28.03;;;15.83;;
23288;SDS011;11813;50.834;4.280;2023-01-19T06:34:11;42.07;;;16.60;;
23288;SDS011;11813;50.834;4.280;2023-01-19T06:36:37;41.27;;;18.40;;
23288;SDS011;11813;50.834;4.280;2023-01-19T06:39:03;34.53;;;16.87;;
23288;SDS011;11813;50.834;4.280;2023-01-19T06:41:30;33.17;;;17.00;;
23288;SDS011;11813;50.834;4.280;2023-01-19T06:43:56;38.80;;;18.43;;
23288;SDS011;11813;50.834;4.280;2023-01-19T06:46:22;31.93;;;18.70;;
23288;SDS011;11813;50.834;4.280;2023-01-19T06:48:47;32.10;;;17.13;;
23288;SDS011;11813;50.834;4.280;2023-01-19T06:51:13;38.27;;;18.80;;
23288;SDS011;11813;50.834;4.280;2023-01-19T06:53:39;41.20;;;18.70;;
23288;SDS011;11813;50.834;4.280;2023-01-19T06:56:04;41.13;;;20.30;;
23288;SDS011;11813;50.834;4.280;2023-01-19T06:58:31;37.43;;;17.93;;
23288;SDS011;11813;50.834;4.280;2023-01-19T07:01:02;40.60;;;18.67;;
23288;SDS011;11813;50.834;4.280;2023-01-19T07:03:29;38.60;;;19.23;;
23288;SDS011;11813;50.834;4.280;2023-01-19T07:05:56;40.13;;;19.17;;
23288;SDS011;11813;50.834;4.280;2023-01-19T07:08:22;35.13;;;18.27;;
23288;SDS011;11813;50.834;4.280;2023-01-19T07:10:48;39.93;;;18.83;;
23288;SDS011;11813;50.834;4.280;2023-01-19T07:13:14;35.63;;;19.47;;
23288;SDS011;11813;50.834;4.280;2023-01-19T07:15:40;35.03;;;18.07;;
23288;SDS011;11813;50.834;4.280;2023-01-19T07:18:05;33.83;;;18.23;;
23288;SDS011;11813;50.834;4.280;2023-01-19T07:20:35;37.73;;;18.53;;
23288;SDS011;11813;50.834;4.280;2023-01-19T07:23:01;41.60;;;19.23;;
23288;SDS011;11813;50.834;4.280;2023-01-19T07:25:28;32.40;;;17.40;;
23288;SDS011;11813;50.834;4.280;2023-01-19T07:28:00;36.80;;;18.07;;
23288;SDS011;11813;50.834;4.280;2023-01-19T07:30:26;37.97;;;18.67;;
23288;SDS011;11813;50.834;4.280;2023-01-19T07:32:55;37.37;;;17.97;;
23288;SDS011;11813;50.834;4.280;2023-01-19T07:35:22;39.07;;;17.97;;
23288;SDS011;11813;50.834;4.280;2023-01-19T07:37:48;39.10;;;18.50;;
23288;SDS011;11813;50.834;4.280;2023-01-19T07:40:14;32.67;;;18.30;;
23288;SDS011;11813;50.834;4.280;2023-01-19T07:42:44;34.80;;;17.70;;
23288;SDS011;11813;50.834;4.280;2023-01-19T07:45:11;41.47;;;18.70;;
23288;SDS011;11813;50.834;4.280;2023-01-19T07:47:36;33.13;;;17.93;;
23288;SDS011;11813;50.834;4.280;2023-01-19T07:50:02;41.97;;;20.07;;
23288;SDS011;11813;50.834;4.280;2023-01-19T07:52:28;39.73;;;20.77;;
23288;SDS011;11813;50.834;4.280;2023-01-19T07:54:53;46.63;;;20.63;;
23288;SDS011;11813;50.834;4.280;2023-01-19T07:57:19;46.33;;;20.03;;
23288;SDS011;11813;50.834;4.280;2023-01-19T07:59:44;38.50;;;20.03;;
23288;SDS011;11813;50.834;4.280;2023-01-19T08:02:10;40.87;;;20.30;;
23288;SDS011;11813;50.834;4.280;2023-01-19T08:04:35;37.30;;;18.77;;
23288;SDS011;11813;50.834;4.280;2023-01-19T08:07:01;42.80;;;19.43;;
23288;SDS011;11813;50.834;4.280;2023-01-19T08:09:27;41.40;;;18.63;;
23288;SDS011;11813;50.834;4.280;2023-01-19T08:11:53;44.10;;;20.87;;
23288;SDS011;11813;50.834;4.280;2023-01-19T08:14:18;38.53;;;18.57;;
23288;SDS011;11813;50.834;4.280;2023-01-19T08:16:44;52.70;;;20.27;;
23288;SDS011;11813;50.834;4.280;2023-01-19T08:19:09;44.73;;;20.27;;
23288;SDS011;11813;50.834;4.280;2023-01-19T08:21:35;41.17;;;18.53;;
23288;SDS011;11813;50.834;4.280;2023-01-19T08:24:02;35.30;;;19.40;;
23288;SDS011;11813;50.834;4.280;2023-01-19T08:26:29;43.23;;;19.13;;
23288;SDS011;11813;50.834;4.280;2023-01-19T08:28:57;46.87;;;20.13;;
23288;SDS011;11813;50.834;4.280;2023-01-19T08:31:25;45.77;;;20.00;;
23288;SDS011;11813;50.834;4.280;2023-01-19T08:33:51;36.73;;;17.53;;
23288;SDS011;11813;50.834;4.280;2023-01-19T08:36:17;41.60;;;20.30;;
23288;SDS011;11813;50.834;4.280;2023-01-19T08:38:46;48.87;;;20.47;;
23288;SDS011;11813;50.834;4.280;2023-01-19T08:41:12;46.27;;;19.50;;
23288;SDS011;11813;50.834;4.280;2023-01-19T08:43:38;53.47;;;20.70;;
23288;SDS011;11813;50.834;4.280;2023-01-19T08:46:03;51.63;;;20.50;;
23288;SDS011;11813;50.834;4.280;2023-01-19T08:48:29;44.70;;;20.23;;
23288;SDS011;11813;50.834;4.280;2023-01-19T08:50:55;46.63;;;20.90;;
23288;SDS011;11813;50.834;4.280;2023-01-19T08:53:21;45.03;;;18.37;;
23288;SDS011;11813;50.834;4.280;2023-01-19T08:55:52;43.00;;;18.37;;
23288;SDS011;11813;50.834;4.280;2023-01-19T08:58:21;46.33;;;18.43;;
23288;SDS011;11813;50.834;4.280;2023-01-19T09:00:47;47.70;;;20.40;;
23288;SDS011;11813;50.834;4.280;2023-01-19T09:03:16;51.13;;;19.00;;
23288;SDS011;11813;50.834;4.280;2023-01-19T09:05:42;40.33;;;17.60;;
23288;SDS011;11813;50.834;4.280;2023-01-19T09:08:09;43.40;;;18.00;;
23288;SDS011;11813;50.834;4.280;2023-01-19T09:10:37;43.17;;;18.63;;
23288;SDS011;11813;50.834;4.280;2023-01-19T09:13:08;42.73;;;19.07;;
23288;SDS011;11813;50.834;4.280;2023-01-19T09:15:35;48.00;;;19.13;;
23288;SDS011;11813;50.834;4.280;2023-01-19T09:18:05;49.37;;;18.60;;
23288;SDS011;11813;50.834;4.280;2023-01-19T09:20:34;45.03;;;18.60;;
23288;SDS011;11813;50.834;4.280;2023-01-19T09:23:02;44.60;;;18.93;;
23288;SDS011;11813;50.834;4.280;2023-01-19T09:25:28;38.70;;;18.20;;
23288;SDS011;11813;50.834;4.280;2023-01-19T09:27:54;51.37;;;18.27;;
23288;SDS011;11813;50.834;4.280;2023-01-19T09:30:20;43.43;;;18.30;;
23288;SDS011;11813;50.834;4.280;2023-01-19T09:32:46;45.93;;;16.07;;
23288;SDS011;11813;50.834;4.280;2023-01-19T09:35:11;45.97;;;17.87;;
23288;SDS011;11813;50.834;4.280;2023-01-19T09:37:37;37.57;;;16.70;;
23288;SDS011;11813;50.834;4.280;2023-01-19T09:40:03;42.27;;;16.93;;
23288;SDS011;11813;50.834;4.280;2023-01-19T09:42:39;41.23;;;17.30;;
23288;SDS011;11813;50.834;4.280;2023-01-19T09:45:15;44.17;;;17.57;;
23288;SDS011;11813;50.834;4.280;2023-01-19T09:48:01;42.30;;;17.67;;
23288;SDS011;11813;50.834;4.280;2023-01-19T09:50:33;40.77;;;16.60;;
23288;SDS011;11813;50.834;4.280;2023-01-19T09:53:03;44.67;;;17.83;;
23288;SDS011;11813;50.834;4.280;2023-01-19T09:55:38;38.87;;;17.03;;
23288;SDS011;11813;50.834;4.280;2023-01-19T09:58:09;40.83;;;16.47;;
23288;SDS011;11813;50.834;4.280;2023-01-19T10:00:39;38.23;;;16.57;;
23288;SDS011;11813;50.834;4.280;2023-01-19T10:08:21;34.50;;;15.40;;
23288;SDS011;11813;50.834;4.280;2023-01-19T10:10:53;45.67;;;16.47;;
23288;SDS011;11813;50.834;4.280;2023-01-19T10:18:46;36.77;;;15.00;;
23288;SDS011;11813;50.834;4.280;2023-01-19T10:24:03;44.70;;;16.40;;
23288;SDS011;11813;50.834;4.280;2023-01-19T10:26:53;42.07;;;17.30;;
23288;SDS011;11813;50.834;4.280;2023-01-19T10:29:21;36.20;;;15.43;;
23288;SDS011;11813;50.834;4.280;2023-01-19T10:31:56;43.63;;;17.67;;
23288;SDS011;11813;50.834;4.280;2023-01-19T10:34:32;38.23;;;15.43;;
23288;SDS011;11813;50.834;4.280;2023-01-19T10:37:01;38.23;;;15.80;;
23288;SDS011;11813;50.834;4.280;2023-01-19T10:39:36;36.10;;;15.53;;
23288;SDS011;11813;50.834;4.280;2023-01-19T10:42:02;35.23;;;14.53;;
23288;SDS011;11813;50.834;4.280;2023-01-19T10:44:33;35.63;;;14.80;;
23288;SDS011;11813;50.834;4.280;2023-01-19T10:47:00;38.77;;;16.37;;
23288;SDS011;11813;50.834;4.280;2023-01-19T10:49:29;38.33;;;15.60;;
23288;SDS011;11813;50.834;4.280;2023-01-19T10:51:57;36.53;;;15.70;;
23288;SDS011;11813;50.834;4.280;2023-01-19T10:54:24;43.40;;;15.20;;
23288;SDS011;11813;50.834;4.280;2023-01-19T10:56:56;42.07;;;16.23;;
23288;SDS011;11813;50.834;4.280;2023-01-19T10:59:36;38.97;;;16.70;;
23288;SDS011;11813;50.834;4.280;2023-01-19T11:02:24;34.40;;;15.73;;
23288;SDS011;11813;50.834;4.280;2023-01-19T11:04:53;31.57;;;14.57;;
23288;SDS011;11813;50.834;4.280;2023-01-19T11:09:48;40.73;;;16.63;;
23288;SDS011;11813;50.834;4.280;2023-01-19T11:12:24;35.13;;;15.40;;
23288;SDS011;11813;50.834;4.280;2023-01-19T11:14:50;36.20;;;15.53;;
23288;SDS011;11813;50.834;4.280;2023-01-19T11:17:23;33.20;;;16.50;;
23288;SDS011;11813;50.834;4.280;2023-01-19T11:19:58;34.70;;;17.00;;
23288;SDS011;11813;50.834;4.280;2023-01-19T11:22:27;39.57;;;16.07;;
23288;SDS011;11813;50.834;4.280;2023-01-19T11:24:59;37.90;;;16.03;;
23288;SDS011;11813;50.834;4.280;2023-01-19T11:27:26;37.00;;;17.67;;
23288;SDS011;11813;50.834;4.280;2023-01-19T11:30:01;38.23;;;17.67;;
23288;SDS011;11813;50.834;4.280;2023-01-19T11:32:34;34.57;;;16.20;;
23288;SDS011;11813;50.834;4.280;2023-01-19T11:35:01;34.17;;;17.77;;
23288;SDS011;11813;50.834;4.280;2023-01-19T11:37:46;36.27;;;17.77;;
23288;SDS011;11813;50.834;4.280;2023-01-19T11:40:14;39.87;;;16.17;;
23288;SDS011;11813;50.834;4.280;2023-01-19T11:42:40;31.77;;;15.03;;
23288;SDS011;11813;50.834;4.280;2023-01-19T11:45:11;35.80;;;17.23;;
23288;SDS011;11813;50.834;4.280;2023-01-19T11:47:44;32.43;;;16.37;;
23288;SDS011;11813;50.834;4.280;2023-01-19T11:50:23;31.70;;;15.30;;
23288;SDS011;11813;50.834;4.280;2023-01-19T11:55:41;36.17;;;17.07;;
23288;SDS011;11813;50.834;4.280;2023-01-19T11:58:17;35.00;;;17.50;;
23288;SDS011;11813;50.834;4.280;2023-01-19T12:06:17;36.10;;;16.97;;
23288;SDS011;11813;50.834;4.280;2023-01-19T12:08:52;31.83;;;15.77;;
23288;SDS011;11813;50.834;4.280;2023-01-19T12:11:26;34.20;;;16.40;;
23288;SDS011;11813;50.834;4.280;2023-01-19T12:14:16;36.10;;;16.40;;
23288;SDS011;11813;50.834;4.280;2023-01-19T12:16:51;35.73;;;17.67;;
23288;SDS011;11813;50.834;4.280;2023-01-19T12:19:23;34.30;;;17.37;;
23288;SDS011;11813;50.834;4.280;2023-01-19T12:21:51;37.90;;;17.10;;
23288;SDS011;11813;50.834;4.280;2023-01-19T12:24:34;31.03;;;17.17;;
23288;SDS011;11813;50.834;4.280;2023-01-19T12:27:32;32.63;;;17.43;;
23288;SDS011;11813;50.834;4.280;2023-01-19T12:32:47;31.00;;;16.10;;
23288;SDS011;11813;50.834;4.280;2023-01-19T12:38:29;30.57;;;14.27;;
23288;SDS011;11813;50.834;4.280;2023-01-19T12:43:42;35.27;;;16.53;;
23288;SDS011;11813;50.834;4.280;2023-01-19T12:46:17;35.30;;;15.67;;
23288;SDS011;11813;50.834;4.280;2023-01-19T12:48:49;28.73;;;15.20;;
23288;SDS011;11813;50.834;4.280;2023-01-19T12:51:22;28.70;;;15.43;;
23288;SDS011;11813;50.834;4.280;2023-01-19T12:53:53;35.70;;;16.70;;
23288;SDS011;11813;50.834;4.280;2023-01-19T12:56:32;32.73;;;15.97;;
23288;SDS011;11813;50.834;4.280;2023-01-19T12:59:00;31.53;;;16.10;;
23288;SDS011;11813;50.834;4.280;2023-01-19T13:01:27;31.67;;;16.10;;
23288;SDS011;11813;50.834;4.280;2023-01-19T13:09:33;33.73;;;15.93;;
23288;SDS011;11813;50.834;4.280;2023-01-19T13:14:39;32.77;;;15.60;;
23288;SDS011;11813;50.834;4.280;2023-01-19T13:17:20;27.63;;;15.33;;
23288;SDS011;11813;50.834;4.280;2023-01-19T13:20:43;30.07;;;14.40;;
23288;SDS011;11813;50.834;4.280;2023-01-19T13:26:09;27.67;;;13.67;;
23288;SDS011;11813;50.834;4.280;2023-01-19T13:31:33;28.17;;;14.23;;
23288;SDS011;11813;50.834;4.280;2023-01-19T13:34:00;27.90;;;13.97;;
23288;SDS011;11813;50.834;4.280;2023-01-19T13:36:30;24.03;;;13.30;;
23288;SDS011;11813;50.834;4.280;2023-01-19T13:39:00;26.50;;;13.80;;
23288;SDS011;11813;50.834;4.280;2023-01-19T13:41:31;30.80;;;15.23;;
23288;SDS011;11813;50.834;4.280;2023-01-19T13:46:45;23.37;;;12.77;;
23288;SDS011;11813;50.834;4.280;2023-01-19T13:52:04;27.03;;;13.67;;
23288;SDS011;11813;50.834;4.280;2023-01-19T13:54:50;24.53;;;12.53;;
23288;SDS011;11813;50.834;4.280;2023-01-19T13:57:52;25.20;;;13.37;;
23288;SDS011;11813;50.834;4.280;2023-01-19T14:00:14;24.83;;;13.20;;
23288;SDS011;11813;50.834;4.280;2023-01-19T14:05:48;20.30;;;12.60;;
23288;SDS011;11813;50.834;4.280;2023-01-19T14:08:16;23.27;;;13.13;;
23288;SDS011;11813;50.834;4.280;2023-01-19T14:15:56;24.37;;;12.67;;
23288;SDS011;11813;50.834;4.280;2023-01-19T14:18:25;24.63;;;12.47;;
23288;SDS011;11813;50.834;4.280;2023-01-19T14:26:02;23.73;;;12.27;;
23288;SDS011;11813;50.834;4.280;2023-01-19T14:31:24;21.97;;;12.93;;
23288;SDS011;11813;50.834;4.280;2023-01-19T14:33:54;25.00;;;12.27;;
23288;SDS011;11813;50.834;4.280;2023-01-19T14:36:26;28.87;;;12.33;;
23288;SDS011;11813;50.834;4.280;2023-01-19T14:39:00;22.40;;;12.10;;
23288;SDS011;11813;50.834;4.280;2023-01-19T14:44:08;24.10;;;11.63;;
23288;SDS011;11813;50.834;4.280;2023-01-19T14:46:35;22.03;;;12.47;;
23288;SDS011;11813;50.834;4.280;2023-01-19T14:49:02;19.70;;;11.50;;
23288;SDS011;11813;50.834;4.280;2023-01-19T14:51:29;20.17;;;12.10;;
23288;SDS011;11813;50.834;4.280;2023-01-19T14:53:56;23.07;;;12.00;;
23288;SDS011;11813;50.834;4.280;2023-01-19T14:56:28;20.87;;;12.20;;
23288;SDS011;11813;50.834;4.280;2023-01-19T14:58:55;22.63;;;11.50;;
23288;SDS011;11813;50.834;4.280;2023-01-19T15:01:22;20.27;;;11.43;;
23288;SDS011;11813;50.834;4.280;2023-01-19T15:03:49;22.53;;;11.67;;
23288;SDS011;11813;50.834;4.280;2023-01-19T15:06:16;24.63;;;12.40;;
23288;SDS011;11813;50.834;4.280;2023-01-19T15:08:44;23.27;;;12.43;;
23288;SDS011;11813;50.834;4.280;2023-01-19T15:11:11;20.70;;;11.37;;
23288;SDS011;11813;50.834;4.280;2023-01-19T15:14:00;21.07;;;12.00;;
23288;SDS011;11813;50.834;4.280;2023-01-19T15:16:26;25.13;;;11.33;;
23288;SDS011;11813;50.834;4.280;2023-01-19T15:18:54;27.53;;;12.23;;
23288;SDS011;11813;50.834;4.280;2023-01-19T15:21:20;21.23;;;11.73;;
23288;SDS011;11813;50.834;4.280;2023-01-19T15:23:52;21.70;;;11.57;;
23288;SDS011;11813;50.834;4.280;2023-01-19T15:26:20;21.50;;;10.67;;
23288;SDS011;11813;50.834;4.280;2023-01-19T15:28:47;25.50;;;11.63;;
23288;SDS011;11813;50.834;4.280;2023-01-19T15:31:14;21.57;;;12.20;;
23288;SDS011;11813;50.834;4.280;2023-01-19T15:33:44;18.90;;;11.63;;
23288;SDS011;11813;50.834;4.280;2023-01-19T15:36:11;21.33;;;11.23;;
23288;SDS011;11813;50.834;4.280;2023-01-19T15:38:38;21.07;;;11.73;;
23288;SDS011;11813;50.834;4.280;2023-01-19T15:41:08;19.77;;;10.83;;
23288;SDS011;11813;50.834;4.280;2023-01-19T15:43:53;25.90;;;11.87;;
23288;SDS011;11813;50.834;4.280;2023-01-19T15:46:19;23.33;;;11.90;;
23288;SDS011;11813;50.834;4.280;2023-01-19T15:48:46;21.53;;;11.40;;
23288;SDS011;11813;50.834;4.280;2023-01-19T15:51:13;20.00;;;11.13;;
23288;SDS011;11813;50.834;4.280;2023-01-19T15:53:41;28.47;;;10.97;;
23288;SDS011;11813;50.834;4.280;2023-01-19T15:56:12;19.77;;;11.67;;
23288;SDS011;11813;50.834;4.280;2023-01-19T15:58:39;22.87;;;11.93;;
23288;SDS011;11813;50.834;4.280;2023-01-19T16:01:05;29.00;;;11.90;;
23288;SDS011;11813;50.834;4.280;2023-01-19T16:03:31;26.20;;;11.50;;